createdAt,value
2023-09-22T00:00:20.109Z,18.92
2023-09-22T00:02:48.275Z,12.02
2023-09-22T00:05:13.548Z,13.25
2023-09-22T00:07:37.862Z,13.50
2023-09-22T00:10:01.944Z,17.33
2023-09-22T00:12:25.833Z,13.10
2023-09-22T00:14:51.129Z,14.48
2023-09-22T00:17:14.932Z,11.88
2023-09-22T00:19:38.860Z,13.68
2023-09-22T00:22:03.421Z,13.55
2023-09-22T00:24:27.312Z,12.55
2023-09-22T00:26:51.222Z,16.08
2023-09-22T00:29:15.245Z,12.18
2023-09-22T00:31:40.572Z,15.77
2023-09-22T00:34:04.683Z,16.45
2023-09-22T00:36:28.533Z,18.50
2023-09-22T00:38:52.406Z,16.33
2023-09-22T00:41:16.502Z,20.45
2023-09-22T00:43:40.663Z,13.90
2023-09-22T00:46:05.481Z,11.63
2023-09-22T00:48:41.684Z,12.57
2023-09-22T00:51:08.092Z,19.65
2023-09-22T00:53:35.770Z,16.42
2023-09-22T00:55:59.929Z,16.90
2023-09-22T00:58:24.930Z,17.08
2023-09-22T01:00:50.108Z,17.30
2023-09-22T01:03:14.691Z,13.80
2023-09-22T01:05:40.174Z,23.27
2023-09-22T01:08:04.012Z,12.45
2023-09-22T01:10:38.559Z,18.40
2023-09-22T01:13:02.482Z,13.57
2023-09-22T01:15:26.405Z,25.08
2023-09-22T01:17:50.468Z,18.33
2023-09-22T01:20:14.460Z,17.25
2023-09-22T01:22:39.576Z,14.88
2023-09-22T01:25:04.108Z,11.20
2023-09-22T01:27:28.040Z,21.65
2023-09-22T01:29:51.913Z,16.67
2023-09-22T01:32:16.686Z,18.77
2023-09-22T01:34:40.562Z,14.93
2023-09-22T01:37:08.966Z,13.18
2023-09-22T01:39:34.314Z,10.77
2023-09-22T01:41:58.149Z,11.70
2023-09-22T01:44:22.270Z,11.98
2023-09-22T01:46:46.293Z,16.80
2023-09-22T01:49:17.660Z,17.95
2023-09-22T01:51:41.662Z,18.67
2023-09-22T01:54:06.103Z,15.07
2023-09-22T01:56:31.724Z,12.27
2023-09-22T01:58:55.593Z,15.60
2023-09-22T02:01:20.298Z,12.30
2023-09-22T02:03:44.441Z,15.95
2023-09-22T02:06:08.418Z,14.07
2023-09-22T02:08:32.244Z,14.85
2023-09-22T02:11:01.762Z,17.80
2023-09-22T02:13:27.092Z,12.23
2023-09-22T02:15:53.299Z,10.05
2023-09-22T02:18:19.287Z,11.60
2023-09-22T02:20:45.299Z,12.00
2023-09-22T02:23:09.334Z,10.98
2023-09-22T02:25:33.186Z,15.48
2023-09-22T02:28:00.191Z,16.13
2023-09-22T02:30:26.001Z,17.08
2023-09-22T02:32:51.845Z,16.50
2023-09-22T02:35:16.025Z,18.45
2023-09-22T02:37:41.838Z,12.45
2023-09-22T02:40:06.412Z,9.23
2023-09-22T02:42:30.277Z,14.25
2023-09-22T02:44:54.492Z,11.55
2023-09-22T02:47:20.000Z,13.55
2023-09-22T02:49:44.310Z,16.25
2023-09-22T02:52:12.110Z,10.25
2023-09-22T02:54:36.242Z,14.00
2023-09-22T02:57:00.145Z,11.40
2023-09-22T02:59:24.023Z,11.45
2023-09-22T03:01:48.027Z,14.98
2023-09-22T03:04:12.353Z,20.08
2023-09-22T03:06:36.250Z,11.48
2023-09-22T03:09:00.185Z,12.95
2023-09-22T03:11:24.109Z,12.15
2023-09-22T03:13:49.180Z,13.43
2023-09-22T03:16:13.203Z,16.30
2023-09-22T03:18:37.171Z,14.52
2023-09-22T03:21:03.483Z,18.20
2023-09-22T03:23:27.343Z,14.05
2023-09-22T03:25:51.507Z,10.15
2023-09-22T03:28:17.107Z,15.90
2023-09-22T03:30:41.077Z,12.85
2023-09-22T03:33:05.697Z,11.70
2023-09-22T03:35:30.725Z,12.60
2023-09-22T03:37:56.990Z,10.63
2023-09-22T03:40:32.134Z,14.75
2023-09-22T03:42:56.005Z,16.73
2023-09-22T03:45:20.419Z,12.75
2023-09-22T03:47:45.113Z,13.43
2023-09-22T03:50:10.056Z,15.55
2023-09-22T03:52:35.231Z,11.75
2023-09-22T03:55:00.420Z,15.65
2023-09-22T03:57:25.066Z,10.43
2023-09-22T03:59:49.075Z,11.90
2023-09-22T04:02:12.876Z,13.55
2023-09-22T04:04:36.854Z,12.38
2023-09-22T04:07:00.949Z,13.93
2023-09-22T04:09:25.132Z,15.77
2023-09-22T04:11:50.680Z,14.73
2023-09-22T04:14:14.577Z,15.38
2023-09-22T04:16:38.563Z,11.75
2023-09-22T04:19:02.448Z,12.82
2023-09-22T04:21:26.554Z,10.65
2023-09-22T04:23:52.554Z,14.15
2023-09-22T04:26:17.950Z,12.73
2023-09-22T04:28:43.437Z,12.40
2023-09-22T04:31:07.572Z,13.55
2023-09-22T04:33:31.579Z,13.35
2023-09-22T04:35:55.582Z,11.48
2023-09-22T04:38:20.188Z,11.40
2023-09-22T04:40:44.241Z,18.27
2023-09-22T04:43:08.901Z,11.85
2023-09-22T04:45:34.498Z,10.88
2023-09-22T04:47:59.215Z,12.50
2023-09-22T04:50:24.238Z,15.48
2023-09-22T04:52:48.968Z,13.82
2023-09-22T04:55:17.952Z,12.02
2023-09-22T04:57:42.179Z,13.25
2023-09-22T05:00:16.977Z,11.80
2023-09-22T05:02:42.873Z,11.18
2023-09-22T05:05:07.718Z,10.80
2023-09-22T05:07:32.188Z,16.85
2023-09-22T05:09:56.356Z,11.65
2023-09-22T05:12:20.616Z,10.77
2023-09-22T05:14:44.421Z,12.73
2023-09-22T05:17:08.902Z,11.60
2023-09-22T05:19:34.188Z,13.25
2023-09-22T05:21:58.260Z,8.43
2023-09-22T05:24:22.146Z,10.07
2023-09-22T05:26:46.070Z,12.40
2023-09-22T05:29:09.894Z,10.10
2023-09-22T05:31:35.570Z,7.45
2023-09-22T05:33:59.432Z,12.85
2023-09-22T05:36:24.723Z,8.52
2023-09-22T05:38:48.742Z,7.32
2023-09-22T05:41:12.635Z,10.02
2023-09-22T05:43:36.494Z,12.60
2023-09-22T05:46:00.816Z,13.45
2023-09-22T05:48:25.446Z,13.32
2023-09-22T05:50:58.062Z,13.35
2023-09-22T05:53:26.097Z,11.68
2023-09-22T05:55:49.854Z,14.65
2023-09-22T05:58:14.345Z,11.77
2023-09-22T06:00:39.806Z,11.15
2023-09-22T06:03:06.220Z,9.70
2023-09-22T06:05:30.665Z,11.45
2023-09-22T06:07:55.808Z,9.90
2023-09-22T06:10:24.021Z,10.85
2023-09-22T06:12:48.046Z,11.88
2023-09-22T06:15:13.986Z,9.88
2023-09-22T06:17:39.181Z,9.15
2023-09-22T06:20:09.841Z,10.00
2023-09-22T06:22:33.942Z,14.18
2023-09-22T06:24:58.083Z,13.80
2023-09-22T06:27:23.754Z,11.63
2023-09-22T06:29:47.809Z,10.93
2023-09-22T06:32:11.734Z,12.45
2023-09-22T06:34:35.826Z,15.85
2023-09-22T06:36:59.910Z,16.15
2023-09-22T06:39:23.871Z,16.67
2023-09-22T06:41:48.017Z,10.93
2023-09-22T06:44:17.363Z,12.93
2023-09-22T06:46:41.560Z,15.55
2023-09-22T06:49:09.275Z,15.98
2023-09-22T06:51:34.769Z,12.18
2023-09-22T06:53:59.191Z,10.95
2023-09-22T06:56:27.217Z,9.70
2023-09-22T06:58:56.535Z,11.18
2023-09-22T07:01:22.159Z,12.63
2023-09-22T07:03:47.534Z,12.63
2023-09-22T07:06:16.242Z,12.48
2023-09-22T07:11:05.334Z,11.38
2023-09-22T07:13:30.872Z,9.73
2023-09-22T07:15:55.710Z,14.25
2023-09-22T07:18:21.073Z,14.13
2023-09-22T07:20:48.146Z,14.68
2023-09-22T07:23:14.061Z,11.02
2023-09-22T07:25:37.860Z,14.95
2023-09-22T07:28:01.787Z,10.15
2023-09-22T07:30:25.653Z,10.70
2023-09-22T07:32:49.708Z,11.73
2023-09-22T07:35:15.801Z,12.75
2023-09-22T07:37:39.905Z,13.25
2023-09-22T07:40:10.597Z,16.25
2023-09-22T07:42:34.833Z,19.85
2023-09-22T07:44:58.707Z,14.05
2023-09-22T07:47:22.545Z,14.05
2023-09-22T07:49:46.614Z,15.45
2023-09-22T07:52:12.123Z,14.30
2023-09-22T07:54:36.233Z,17.15
2023-09-22T07:57:00.792Z,16.02
2023-09-22T07:59:24.959Z,17.17
2023-09-22T08:01:48.895Z,17.27
2023-09-22T08:04:13.375Z,16.98
2023-09-22T08:06:37.573Z,12.82
2023-09-22T08:09:04.979Z,11.75
2023-09-22T08:11:29.149Z,15.07
2023-09-22T08:13:53.027Z,12.45
2023-09-22T08:16:18.995Z,17.15
2023-09-22T08:18:43.055Z,15.90
2023-09-22T08:21:07.372Z,16.17
2023-09-22T08:23:45.627Z,11.30
2023-09-22T08:26:18.822Z,10.13
2023-09-22T08:28:43.096Z,12.70
2023-09-22T08:31:08.622Z,13.30
2023-09-22T08:33:33.288Z,16.50
2023-09-22T08:36:03.692Z,11.32
2023-09-22T08:38:28.132Z,13.30
2023-09-22T08:40:52.259Z,12.63
2023-09-22T08:43:18.016Z,13.55
2023-09-22T08:45:42.921Z,14.70
2023-09-22T08:48:07.680Z,17.13
2023-09-22T08:50:31.603Z,12.27
2023-09-22T08:52:55.785Z,17.08
2023-09-22T08:55:21.121Z,12.77
2023-09-22T08:57:47.092Z,14.82
2023-09-22T09:00:20.676Z,17.40
2023-09-22T09:02:44.987Z,19.08
2023-09-22T09:05:21.917Z,15.63
2023-09-22T09:07:46.064Z,20.33
2023-09-22T09:10:11.685Z,11.10
2023-09-22T09:12:47.222Z,18.27
2023-09-22T09:15:13.110Z,21.48
2023-09-22T09:17:37.080Z,14.90
2023-09-22T09:20:07.059Z,12.45
2023-09-22T09:22:36.893Z,13.98
2023-09-22T09:25:01.582Z,16.75
2023-09-22T09:27:26.345Z,14.02
2023-09-22T09:29:51.944Z,10.55
2023-09-22T09:32:26.800Z,14.75
2023-09-22T09:34:50.809Z,17.10
2023-09-22T09:37:16.094Z,16.95
2023-09-22T09:39:46.842Z,11.30
2023-09-22T09:42:13.622Z,14.48
2023-09-22T09:44:38.773Z,15.98
2023-09-22T09:47:04.860Z,15.88
2023-09-22T09:49:31.553Z,19.42
2023-09-22T09:51:55.592Z,21.63
2023-09-22T09:54:22.721Z,12.55
2023-09-22T09:56:46.755Z,18.10
2023-09-22T09:59:11.738Z,17.23
2023-09-22T10:01:36.842Z,20.38
2023-09-22T10:04:01.404Z,21.48
2023-09-22T10:06:34.673Z,19.95
2023-09-22T10:09:02.455Z,19.35
2023-09-22T10:11:26.748Z,13.30
2023-09-22T10:13:51.048Z,23.73
2023-09-22T10:16:30.088Z,14.77
2023-09-22T10:21:44.863Z,16.95
2023-09-22T10:24:26.704Z,20.48
2023-09-22T10:27:18.206Z,18.50
2023-09-22T10:29:47.032Z,19.52
2023-09-22T10:32:27.376Z,16.83
2023-09-22T10:34:53.223Z,20.50
2023-09-22T10:37:19.088Z,23.02
2023-09-22T10:39:57.537Z,25.33
2023-09-22T10:42:22.959Z,23.52
2023-09-22T10:45:01.016Z,17.40
2023-09-22T10:47:25.067Z,23.73
2023-09-22T10:49:49.088Z,25.92
2023-09-22T10:52:15.764Z,18.92
2023-09-22T10:54:48.304Z,30.83
2023-09-22T10:57:25.258Z,23.55
2023-09-22T10:59:49.448Z,20.63
2023-09-22T11:02:22.794Z,18.33
2023-09-22T11:04:48.449Z,20.23
2023-09-22T11:07:13.685Z,27.00
2023-09-22T11:09:37.628Z,19.35
2023-09-22T11:12:03.636Z,17.17
2023-09-22T11:14:27.608Z,15.23
2023-09-22T11:16:51.669Z,14.68
2023-09-22T11:19:15.706Z,14.02
2023-09-22T11:21:44.340Z,14.50
2023-09-22T11:24:08.625Z,18.27
2023-09-22T11:26:42.380Z,21.85
2023-09-22T11:29:07.847Z,34.95
2023-09-22T11:31:33.873Z,19.25
2023-09-22T11:34:05.301Z,23.98
2023-09-22T11:36:29.291Z,25.17
2023-09-22T11:38:56.563Z,19.73
2023-09-22T11:41:24.583Z,20.92
2023-09-22T11:43:49.912Z,18.80
2023-09-22T11:46:16.846Z,26.38
2023-09-22T11:49:00.809Z,17.23
2023-09-22T11:51:40.042Z,22.33
2023-09-22T11:54:04.692Z,16.42
2023-09-22T11:56:28.552Z,13.20
2023-09-22T11:58:52.577Z,20.35
2023-09-22T12:01:18.696Z,17.95
2023-09-22T12:03:42.736Z,21.23
2023-09-22T12:06:06.673Z,19.88
2023-09-22T12:08:32.926Z,19.38
2023-09-22T12:10:56.839Z,17.58
2023-09-22T12:13:20.786Z,16.65
2023-09-22T12:15:44.693Z,15.27
2023-09-22T12:18:11.888Z,15.05
2023-09-22T12:20:37.104Z,16.58
2023-09-22T12:23:01.249Z,19.35
2023-09-22T12:25:26.219Z,14.98
2023-09-22T12:27:50.164Z,24.98
2023-09-22T12:30:15.753Z,13.80
2023-09-22T12:32:39.973Z,20.13
2023-09-22T12:35:06.432Z,20.88
2023-09-22T12:37:32.309Z,20.27
2023-09-22T12:39:56.318Z,17.13
2023-09-22T12:42:20.603Z,16.65
2023-09-22T12:44:44.456Z,18.60
2023-09-22T12:47:09.949Z,15.05
2023-09-22T12:49:34.567Z,15.68
2023-09-22T12:52:00.004Z,18.67
2023-09-22T12:54:23.769Z,20.35
2023-09-22T12:56:47.629Z,17.63
2023-09-22T12:59:11.408Z,18.95
2023-09-22T13:01:35.364Z,18.27
2023-09-22T13:04:00.038Z,14.05
2023-09-22T13:06:24.635Z,20.00
2023-09-22T13:08:49.892Z,18.60
2023-09-22T13:11:17.804Z,24.55
2023-09-22T13:13:41.557Z,16.23
2023-09-22T13:16:06.035Z,25.38
2023-09-22T13:18:29.945Z,16.58
2023-09-22T13:20:53.862Z,12.52
2023-09-22T13:23:17.778Z,19.13
2023-09-22T13:25:46.505Z,15.93
2023-09-22T13:28:11.762Z,17.33
2023-09-22T13:30:37.376Z,19.98
2023-09-22T13:33:01.279Z,18.70
2023-09-22T13:35:25.223Z,14.65
2023-09-22T13:37:49.007Z,15.88
2023-09-22T13:40:13.601Z,17.00
2023-09-22T13:42:38.785Z,13.32
2023-09-22T13:45:02.862Z,15.95
2023-09-22T13:47:26.766Z,17.90
2023-09-22T13:49:53.230Z,15.60
2023-09-22T13:52:18.125Z,16.48
2023-09-22T13:54:42.937Z,10.77
2023-09-22T13:57:07.141Z,16.67
2023-09-22T13:59:32.597Z,17.10
2023-09-22T14:01:57.288Z,14.18
2023-09-22T14:04:21.369Z,10.90
2023-09-22T14:06:45.177Z,18.25
2023-09-22T14:09:10.094Z,17.23
2023-09-22T14:11:33.988Z,13.73
2023-09-22T14:13:57.999Z,11.90
2023-09-22T14:16:23.535Z,13.63
2023-09-22T14:18:47.636Z,12.68
2023-09-22T14:21:13.475Z,16.13
2023-09-22T14:23:37.741Z,20.67
2023-09-22T14:26:04.279Z,14.85
2023-09-22T14:28:29.637Z,18.50
2023-09-22T14:30:54.042Z,26.27
2023-09-22T14:33:19.720Z,14.90
2023-09-22T14:35:43.754Z,15.43
2023-09-22T14:38:08.080Z,17.10
2023-09-22T14:40:32.298Z,20.77
2023-09-22T14:42:57.589Z,19.65
2023-09-22T14:45:21.387Z,21.90
2023-09-22T14:47:46.972Z,16.65
2023-09-22T14:50:12.218Z,18.17
2023-09-22T14:52:36.088Z,16.00
2023-09-22T14:55:00.778Z,17.20
2023-09-22T14:57:24.597Z,21.75
2023-09-22T14:59:48.837Z,21.15
2023-09-22T15:02:13.826Z,19.17
2023-09-22T15:04:38.339Z,19.15
2023-09-22T15:07:04.174Z,12.55
2023-09-22T15:09:28.970Z,15.93
2023-09-22T15:11:52.924Z,16.77
2023-09-22T15:14:18.249Z,15.15
2023-09-22T15:16:42.157Z,20.67
2023-09-22T15:19:06.179Z,22.25
2023-09-22T15:21:30.388Z,11.48
2023-09-22T15:23:55.644Z,15.18
2023-09-22T15:26:22.572Z,18.30
2023-09-22T15:28:46.528Z,15.68
2023-09-22T15:31:11.775Z,15.32
2023-09-22T15:33:35.889Z,18.17
2023-09-22T15:36:00.391Z,12.23
2023-09-22T15:38:24.303Z,12.35
2023-09-22T15:41:01.289Z,24.92
2023-09-22T15:43:25.673Z,18.23
2023-09-22T15:45:49.690Z,24.33
2023-09-22T15:48:13.589Z,20.73
2023-09-22T15:50:37.793Z,26.52
2023-09-22T15:53:02.036Z,24.55
2023-09-22T15:55:25.956Z,20.50
2023-09-22T15:57:51.277Z,29.33
2023-09-22T16:00:15.554Z,28.85
2023-09-22T16:02:43.378Z,23.35
2023-09-22T16:05:08.077Z,23.77
2023-09-22T16:07:33.696Z,31.88
2023-09-22T16:09:57.586Z,35.10
2023-09-22T16:12:21.544Z,40.30
2023-09-22T16:14:46.772Z,40.47
2023-09-22T16:17:10.827Z,32.67
2023-09-22T16:19:34.824Z,26.70
2023-09-22T16:21:59.634Z,32.65
2023-09-22T16:24:23.522Z,36.05
2023-09-22T16:26:48.017Z,37.33
2023-09-22T16:29:11.958Z,31.02
2023-09-22T16:31:37.298Z,31.67
2023-09-22T16:34:01.200Z,33.70
2023-09-22T16:36:25.097Z,31.00
2023-09-22T16:38:50.189Z,30.58
2023-09-22T16:41:14.011Z,27.45
2023-09-22T16:43:41.740Z,28.63
2023-09-22T16:46:05.833Z,34.60
2023-09-22T16:48:31.123Z,28.92
2023-09-22T16:50:55.627Z,25.02
2023-09-22T16:53:19.536Z,25.13
2023-09-22T16:55:43.477Z,30.50
2023-09-22T16:58:07.418Z,21.05
2023-09-22T17:00:32.367Z,26.17
2023-09-22T17:02:57.022Z,22.45
2023-09-22T17:05:23.378Z,26.55
2023-09-22T17:07:47.502Z,22.67
2023-09-22T17:10:12.454Z,22.33
2023-09-22T17:12:36.634Z,25.45
2023-09-22T17:15:00.697Z,32.75
2023-09-22T17:17:25.611Z,26.75
2023-09-22T17:19:50.681Z,27.73
2023-09-22T17:22:16.046Z,26.55
2023-09-22T17:24:40.133Z,96.97
2023-09-22T17:27:04.444Z,56.90
2023-09-22T17:29:28.484Z,28.98
2023-09-22T17:31:53.942Z,35.15
2023-09-22T17:34:17.778Z,37.67
2023-09-22T17:36:41.608Z,31.10
2023-09-22T17:39:09.959Z,27.52
2023-09-22T17:41:34.715Z,35.30
2023-09-22T17:43:59.080Z,32.25
2023-09-22T17:46:26.378Z,40.55
2023-09-22T17:48:50.483Z,42.95
2023-09-22T17:51:15.317Z,42.95
2023-09-22T17:53:39.396Z,34.50
2023-09-22T17:56:05.470Z,37.92
2023-09-22T17:58:29.477Z,33.20
2023-09-22T18:00:53.376Z,35.10
2023-09-22T18:03:17.370Z,31.60
2023-09-22T18:05:41.197Z,29.67
2023-09-22T18:08:05.340Z,36.05
2023-09-22T18:10:29.382Z,29.67
2023-09-22T18:12:54.850Z,30.50
2023-09-22T18:15:18.873Z,25.83
2023-09-22T18:17:46.560Z,30.02
2023-09-22T18:20:15.812Z,19.38
2023-09-22T18:22:39.872Z,23.08
2023-09-22T18:25:03.898Z,27.60
2023-09-22T18:27:28.356Z,25.67
2023-09-22T18:29:53.648Z,23.98
2023-09-22T18:32:18.068Z,32.63
2023-09-22T18:34:43.768Z,28.77
2023-09-22T18:37:07.731Z,23.45
2023-09-22T18:39:31.519Z,27.80
2023-09-22T18:41:55.821Z,34.15
2023-09-22T18:44:19.660Z,25.35
2023-09-22T18:46:44.961Z,27.27
2023-09-22T18:49:10.246Z,23.45
2023-09-22T18:51:34.786Z,28.20
2023-09-22T18:53:58.766Z,19.58
2023-09-22T18:56:22.738Z,22.38
2023-09-22T18:58:47.556Z,26.95
2023-09-22T19:01:11.756Z,27.70
2023-09-22T19:03:37.191Z,20.85
2023-09-22T19:06:04.375Z,20.20
2023-09-22T19:08:28.264Z,25.33
2023-09-22T19:10:52.822Z,16.58
2023-09-22T19:13:16.861Z,18.58
2023-09-22T19:15:45.299Z,18.15
2023-09-22T19:18:09.357Z,19.98
2023-09-22T19:20:37.785Z,26.02
2023-09-22T19:23:02.078Z,25.52
2023-09-22T19:25:31.507Z,24.55
2023-09-22T19:27:55.729Z,25.35
2023-09-22T19:30:19.711Z,28.45
2023-09-22T19:32:43.813Z,22.33
2023-09-22T19:35:10.789Z,19.95
2023-09-22T19:37:36.665Z,18.85
2023-09-22T19:40:00.584Z,30.02
2023-09-22T19:42:24.359Z,23.55
2023-09-22T19:44:49.281Z,26.80
2023-09-22T19:47:13.298Z,25.73
2023-09-22T19:49:37.638Z,30.15
2023-09-22T19:52:02.025Z,19.65
2023-09-22T19:54:27.381Z,22.73
2023-09-22T19:56:51.391Z,21.90
2023-09-22T19:59:15.410Z,26.23
2023-09-22T20:01:39.729Z,16.52
2023-09-22T20:04:04.356Z,21.88
2023-09-22T20:06:28.317Z,22.85
2023-09-22T20:08:53.627Z,24.45
2023-09-22T20:11:18.943Z,26.70
2023-09-22T20:13:45.249Z,18.17
2023-09-22T20:16:11.764Z,24.13
2023-09-22T20:18:35.931Z,28.95
2023-09-22T20:21:00.712Z,26.30
2023-09-22T20:23:24.582Z,20.77
2023-09-22T20:25:48.634Z,22.48
2023-09-22T20:28:14.491Z,21.48
2023-09-22T20:30:40.286Z,25.88
2023-09-22T20:33:04.276Z,22.88
2023-09-22T20:35:31.094Z,23.60
2023-09-22T20:37:55.075Z,20.88
2023-09-22T20:40:18.942Z,23.23
2023-09-22T20:42:42.821Z,26.40
2023-09-22T20:45:12.698Z,19.52
2023-09-22T20:47:37.264Z,21.45
2023-09-22T20:50:01.170Z,29.90
2023-09-22T20:52:25.666Z,26.73
2023-09-22T20:54:50.757Z,20.58
2023-09-22T20:57:14.685Z,15.88
2023-09-22T20:59:38.465Z,23.15
2023-09-22T21:02:04.892Z,20.45
2023-09-22T21:04:31.263Z,22.45
2023-09-22T21:06:55.283Z,22.80
2023-09-22T21:09:20.676Z,21.02
2023-09-22T21:11:44.900Z,21.50
2023-09-22T21:14:08.687Z,21.27
2023-09-22T21:16:33.001Z,22.90
2023-09-22T21:18:59.323Z,26.48
2023-09-22T21:21:23.236Z,20.27
2023-09-22T21:23:48.075Z,16.23
2023-09-22T21:26:14.152Z,22.75
2023-09-22T21:28:39.044Z,25.60
2023-09-22T21:31:03.825Z,18.95
2023-09-22T21:33:28.614Z,22.15
2023-09-22T21:35:54.484Z,21.30
2023-09-22T21:38:18.357Z,19.95
2023-09-22T21:40:42.544Z,18.17
2023-09-22T21:43:06.948Z,18.08
2023-09-22T21:45:32.555Z,22.63
2023-09-22T21:47:58.802Z,19.63
2023-09-22T21:50:22.906Z,25.95
2023-09-22T21:52:48.253Z,26.33
2023-09-22T21:55:12.253Z,25.55
2023-09-22T21:57:36.249Z,19.80
2023-09-22T22:00:01.713Z,20.20
2023-09-22T22:02:35.720Z,17.60
2023-09-22T22:05:00.225Z,24.80
2023-09-22T22:07:25.034Z,23.55
2023-09-22T22:09:52.780Z,18.77
2023-09-22T22:12:16.904Z,20.48
2023-09-22T22:14:41.394Z,17.90
2023-09-22T22:17:05.981Z,22.10
2023-09-22T22:19:30.571Z,25.85
2023-09-22T22:21:56.402Z,22.55
2023-09-22T22:24:23.084Z,27.48
2023-09-22T22:26:53.125Z,21.00
2023-09-22T22:29:17.522Z,21.65
2023-09-22T22:31:41.912Z,24.95
2023-09-22T22:34:05.992Z,25.40
2023-09-22T22:36:29.863Z,25.52
2023-09-22T22:38:53.756Z,25.77
2023-09-22T22:41:17.879Z,23.65
2023-09-22T22:43:43.258Z,22.25
2023-09-22T22:46:07.041Z,20.80
2023-09-22T22:48:31.013Z,21.67
2023-09-22T22:50:55.696Z,22.85
2023-09-22T22:53:20.249Z,15.75
2023-09-22T22:55:44.169Z,20.83
2023-09-22T22:58:19.115Z,19.00
2023-09-22T23:00:49.274Z,34.28
2023-09-22T23:03:13.803Z,24.00
2023-09-22T23:05:38.372Z,23.25
2023-09-22T23:08:04.856Z,24.88
2023-09-22T23:10:29.109Z,20.88
2023-09-22T23:12:52.880Z,29.38
2023-09-22T23:15:17.706Z,23.23
2023-09-22T23:17:43.847Z,25.23
2023-09-22T23:20:10.449Z,27.00
2023-09-22T23:22:34.485Z,24.60
2023-09-22T23:24:58.623Z,31.05
2023-09-22T23:27:22.605Z,25.77
2023-09-22T23:29:46.741Z,25.40
2023-09-22T23:32:10.709Z,25.33
2023-09-22T23:34:37.415Z,25.95
2023-09-22T23:37:01.425Z,23.30
2023-09-22T23:39:26.423Z,29.85
2023-09-22T23:41:50.273Z,22.63
2023-09-22T23:44:14.603Z,25.38
2023-09-22T23:46:38.989Z,28.17
2023-09-22T23:49:07.015Z,20.67
2023-09-22T23:51:32.151Z,25.65
2023-09-22T23:53:56.214Z,21.48
2023-09-22T23:56:21.909Z,26.90
2023-09-22T23:58:47.219Z,26.02
